Airport Name : Nurnberg

Other Name : Nurnberg

ICAO : EDDN

IATA : NUE

FAA :

Latitude : 49.4987

Longitude : 11.066897

Country : Germany

Local Date and Time : 23 Sep 2021 14:48

 

TAF (Terminal Aerodrome Forecast)

TAF EDDN 231100Z 2312/2412 25006KT CAVOK PROB30 TEMPO 2405/2409 BKN012

 

METAR (METeorological Aerodrome Report)

EDDN 231220Z 24008KT CAVOK 21/09 Q1019 NOSIG

EDDN 231150Z 20007KT 160V260 CAVOK 21/10 Q1019 NOSIG

EDDN 231120Z 21004KT 150V260 CAVOK 20/10 Q1020 NOSIG

EDDN 231050Z 23004KT 140V310 CAVOK 19/10 Q1020 NOSIG

EDDN 231020Z 19005KT 140V270 CAVOK 18/10 Q1021 NOSIG

EDDN 230950Z 18007KT 140V240 CAVOK 17/09 Q1021 NOSIG

EDDN 230920Z 18007KT 130V210 CAVOK 16/09 Q1021 NOSIG

EDDN 230850Z 18005KT 140V220 CAVOK 15/08 Q1022 NOSIG

To Charter a Jet Click here.